Terminal Aerodrome Forecast
Issued by NWS Corpus Christi, TX

Home | Current Version | Previous Version | Text Only | Print | Product List | Glossary On
Versions: 1 2 3 4 5 6 7 8 9 10 11 12 13 14
000
FTUS44 KCRP 310500
TAFVCT
TAF
KVCT 310536Z 3106/0106 VRB04KT P6SM SCT018 BKN120
     FM311400 VRB05KT P6SM VCTS SCT015CB BKN050
     FM311600 15012KT P6SM VCTS SCT040CB BKN150 PROB30 3116/3120 5SM
      TSRA BR BKN025CB
     FM010000 13012KT P6SM FEW035 BKN150=

USA.gov is the U.S. government's official web portal to all federal, state and local government web resources and services.